createdAt,value
2023-03-08T00:00:13.406Z,0.23
2023-03-08T00:02:39.771Z,0.26
2023-03-08T00:05:06.936Z,0.32
2023-03-08T00:07:33.559Z,0.33
2023-03-08T00:09:59.941Z,0.32
2023-03-08T00:12:26.341Z,0.36
2023-03-08T00:14:52.696Z,0.37
2023-03-08T00:17:19.247Z,0.44
2023-03-08T00:19:45.741Z,0.45
2023-03-08T00:22:12.310Z,0.44
2023-03-08T00:24:38.638Z,0.46
2023-03-08T00:27:05.213Z,0.43
2023-03-08T00:29:31.605Z,0.45
2023-03-08T00:31:58.006Z,0.46
2023-03-08T00:34:24.645Z,0.48
2023-03-08T00:36:51.010Z,0.49
2023-03-08T00:39:18.257Z,0.53
2023-03-08T00:41:44.637Z,0.55
2023-03-08T00:44:10.983Z,0.57
2023-03-08T00:46:37.349Z,0.58
2023-03-08T00:49:04.824Z,0.57
2023-03-08T00:51:31.180Z,0.53
2023-03-08T00:53:57.521Z,0.55
2023-03-08T00:56:23.921Z,0.57
2023-03-08T00:58:50.272Z,0.56
2023-03-08T01:01:18.239Z,0.56
2023-03-08T01:03:44.728Z,0.59
2023-03-08T01:06:12.746Z,0.56
2023-03-08T01:08:41.934Z,0.58
2023-03-08T01:11:16.481Z,0.60
2023-03-08T01:13:42.858Z,0.62
2023-03-08T01:16:17.380Z,0.63
2023-03-08T01:18:43.790Z,0.61
2023-03-08T01:21:10.351Z,0.62
2023-03-08T01:23:36.930Z,0.67
2023-03-08T01:26:12.427Z,0.66
2023-03-08T01:28:38.834Z,0.63
2023-03-08T01:31:07.071Z,0.69
2023-03-08T01:33:33.684Z,0.70
2023-03-08T01:36:00.332Z,0.74
2023-03-08T01:38:26.697Z,0.76
2023-03-08T01:40:59.572Z,0.78
2023-03-08T01:43:30.650Z,0.75
2023-03-08T01:46:23.293Z,0.75
2023-03-08T01:49:00.319Z,0.79
2023-03-08T01:51:39.535Z,0.81
2023-03-08T01:54:15.323Z,0.82
2023-03-08T01:56:42.087Z,0.80
2023-03-08T01:59:08.431Z,0.77
2023-03-08T02:01:34.905Z,0.78
2023-03-08T02:04:29.272Z,0.83
2023-03-08T02:06:55.664Z,0.83
2023-03-08T02:09:31.254Z,0.80
2023-03-08T02:11:59.692Z,0.80
2023-03-08T02:14:26.147Z,0.79
2023-03-08T02:16:52.480Z,0.82
2023-03-08T02:19:34.220Z,0.80
2023-03-08T02:22:08.248Z,0.83
2023-03-08T02:24:34.776Z,0.80
2023-03-08T02:27:04.800Z,0.77
2023-03-08T02:29:31.210Z,0.81
2023-03-08T02:31:57.597Z,0.86
2023-03-08T02:34:23.980Z,0.81
2023-03-08T02:36:53.310Z,0.86
2023-03-08T02:39:19.692Z,0.87
2023-03-08T02:41:46.062Z,0.85
2023-03-08T02:44:12.407Z,0.88
2023-03-08T02:46:38.812Z,0.88
2023-03-08T02:49:05.178Z,0.90
2023-03-08T02:51:31.557Z,0.90
2023-03-08T02:53:57.942Z,0.90
2023-03-08T02:56:24.696Z,0.89
2023-03-08T02:58:51.060Z,0.92
2023-03-08T03:01:17.495Z,0.91
2023-03-08T03:03:44.090Z,0.90
2023-03-08T03:06:17.904Z,0.87
2023-03-08T03:08:44.302Z,0.84
2023-03-08T03:11:15.206Z,0.85
2023-03-08T03:13:41.595Z,0.85
2023-03-08T03:16:09.303Z,0.87
2023-03-08T03:18:35.904Z,0.85
2023-03-08T03:21:06.319Z,0.86
2023-03-08T03:23:32.708Z,0.90
2023-03-08T03:26:09.944Z,0.89
2023-03-08T03:28:36.398Z,0.86
2023-03-08T03:31:07.257Z,0.85
2023-03-08T03:33:33.829Z,0.84
2023-03-08T03:36:00.236Z,0.85
2023-03-08T03:38:26.614Z,0.85
2023-03-08T03:41:09.200Z,0.83
2023-03-08T03:43:35.657Z,0.82
2023-03-08T03:46:03.600Z,0.80
2023-03-08T03:48:30.029Z,0.75
2023-03-08T03:50:57.361Z,0.74
2023-03-08T03:53:24.185Z,0.76
2023-03-08T03:55:50.754Z,0.75
2023-03-08T03:58:17.235Z,0.71
2023-03-08T04:00:43.606Z,0.76
2023-03-08T04:03:10.281Z,0.71
2023-03-08T04:05:36.677Z,0.68
2023-03-08T04:08:03.261Z,0.68
2023-03-08T04:10:31.171Z,0.61
2023-03-08T04:12:57.587Z,0.59
2023-03-08T04:15:23.925Z,0.57
2023-03-08T04:17:51.191Z,0.56
2023-03-08T04:20:17.655Z,0.50
2023-03-08T04:22:44.000Z,0.52
2023-03-08T04:25:10.649Z,0.52
2023-03-08T04:27:36.983Z,0.45
2023-03-08T04:30:04.012Z,0.37
2023-03-08T04:32:32.555Z,0.24
2023-03-08T04:34:58.984Z,0.17
2023-03-08T04:37:25.440Z,0.15
2023-03-08T04:39:51.967Z,0.13
2023-03-08T04:42:18.306Z,0.16
2023-03-08T04:44:44.649Z,0.23
2023-03-08T04:47:11.244Z,0.21
2023-03-08T04:49:37.607Z,0.23
2023-03-08T04:52:04.137Z,0.20
2023-03-08T04:54:30.670Z,0.23
2023-03-08T04:56:57.336Z,0.19
2023-03-08T04:59:23.692Z,0.18
2023-03-08T05:01:50.312Z,0.21
2023-03-08T05:04:16.724Z,0.20
2023-03-08T05:06:43.078Z,0.21
2023-03-08T05:09:09.461Z,0.19
2023-03-08T05:11:35.789Z,0.18
2023-03-08T05:14:02.138Z,0.17
2023-03-08T05:16:28.873Z,0.17
2023-03-08T05:18:55.289Z,0.12
2023-03-08T05:21:22.458Z,0.16
2023-03-08T05:23:49.054Z,0.17
2023-03-08T05:26:16.332Z,0.12
2023-03-08T05:28:42.725Z,0.09
2023-03-08T05:31:14.528Z,0.08
2023-03-08T05:33:41.004Z,0.09
2023-03-08T05:36:07.891Z,0.12
2023-03-08T05:38:34.647Z,0.11
2023-03-08T05:41:02.055Z,0.11
2023-03-08T05:43:28.420Z,0.08
2023-03-08T05:45:59.151Z,0.08
2023-03-08T05:48:25.686Z,0.01
2023-03-08T05:50:52.523Z,0.02
2023-03-08T05:53:19.080Z,0.03
2023-03-08T05:55:45.442Z,0.07
2023-03-08T05:58:11.805Z,0.06
2023-03-08T06:00:38.291Z,0.03
2023-03-08T06:03:04.706Z,0.08
2023-03-08T06:05:31.885Z,0.06
2023-03-08T06:07:58.458Z,0.02
2023-03-08T06:10:24.908Z,0.02
2023-03-08T06:12:51.569Z,0.03
2023-03-08T06:15:17.992Z,0.03
2023-03-08T06:17:44.373Z,0.06
2023-03-08T06:20:11.140Z,0.10
2023-03-08T06:22:37.700Z,0.12
2023-03-08T06:25:07.119Z,0.16
2023-03-08T06:27:33.454Z,0.20
2023-03-08T06:29:59.839Z,0.25
2023-03-08T06:32:26.190Z,0.30
2023-03-08T06:34:52.565Z,0.31
2023-03-08T06:37:18.964Z,0.29
2023-03-08T06:39:45.364Z,0.31
2023-03-08T06:42:11.706Z,0.32
2023-03-08T06:44:40.004Z,0.38
2023-03-08T06:47:06.492Z,0.44
2023-03-08T06:49:33.765Z,0.49
2023-03-08T06:52:00.199Z,0.53
2023-03-08T06:54:26.579Z,0.53
2023-03-08T06:56:52.993Z,0.46
2023-03-08T06:59:19.486Z,0.50
2023-03-08T07:01:45.836Z,0.49
2023-03-08T07:04:12.280Z,0.57
2023-03-08T07:06:38.666Z,0.62
2023-03-08T07:09:05.083Z,0.64
2023-03-08T07:11:32.226Z,0.69
2023-03-08T07:13:59.295Z,0.72
2023-03-08T07:16:25.876Z,0.71
2023-03-08T07:18:52.411Z,0.75
2023-03-08T07:21:18.788Z,0.81
2023-03-08T07:23:45.160Z,0.87
2023-03-08T07:26:11.542Z,0.92
2023-03-08T07:28:38.116Z,0.87
2023-03-08T07:31:04.839Z,0.95
2023-03-08T07:33:31.428Z,0.91
2023-03-08T07:36:01.504Z,0.90
2023-03-08T07:38:28.053Z,0.97
2023-03-08T07:40:56.014Z,1.02
2023-03-08T07:43:23.293Z,1.01
2023-03-08T07:45:49.661Z,1.02
2023-03-08T07:48:16.073Z,1.07
2023-03-08T07:50:42.500Z,1.11
2023-03-08T07:53:08.877Z,1.17
2023-03-08T07:55:36.867Z,1.11
2023-03-08T07:58:03.278Z,1.20
2023-03-08T08:00:29.684Z,1.22
2023-03-08T08:02:56.331Z,1.27
2023-03-08T08:05:22.974Z,1.32
2023-03-08T08:07:49.406Z,1.34
2023-03-08T08:10:16.317Z,1.40
2023-03-08T08:12:42.757Z,1.41
2023-03-08T08:15:09.572Z,1.43
2023-03-08T08:17:36.167Z,1.51
2023-03-08T08:20:02.557Z,1.54
2023-03-08T08:22:28.919Z,1.56
2023-03-08T08:24:55.512Z,1.62
2023-03-08T08:27:21.878Z,1.67
2023-03-08T08:29:50.932Z,1.73
2023-03-08T08:32:17.434Z,1.73
2023-03-08T08:34:43.920Z,1.72
2023-03-08T08:37:10.471Z,1.67
2023-03-08T08:39:36.907Z,1.75
2023-03-08T08:42:03.629Z,1.78
2023-03-08T08:44:29.976Z,1.74
2023-03-08T08:46:56.393Z,1.74
2023-03-08T08:49:22.769Z,1.82
2023-03-08T08:51:49.138Z,1.88
2023-03-08T08:54:15.854Z,1.85
2023-03-08T08:56:43.513Z,1.90
2023-03-08T08:59:11.575Z,1.94
2023-03-08T09:01:43.325Z,1.99
2023-03-08T09:04:11.453Z,1.98
2023-03-08T09:06:37.978Z,1.95
2023-03-08T09:09:05.334Z,1.92
2023-03-08T09:11:33.478Z,1.94
2023-03-08T09:14:02.493Z,2.04
2023-03-08T09:16:30.541Z,2.10
2023-03-08T09:18:57.945Z,2.17
2023-03-08T09:21:25.340Z,2.17
2023-03-08T09:23:51.843Z,2.23
2023-03-08T09:26:18.524Z,2.28
2023-03-08T09:28:45.059Z,2.27
2023-03-08T09:31:14.880Z,2.33
2023-03-08T09:33:46.140Z,2.37
2023-03-08T09:36:12.816Z,2.41
2023-03-08T09:38:39.291Z,2.51
2023-03-08T09:41:17.611Z,2.55
2023-03-08T09:43:47.610Z,2.54
2023-03-08T09:46:15.228Z,2.56
2023-03-08T09:48:44.479Z,2.57
2023-03-08T09:51:11.406Z,2.65
2023-03-08T09:53:46.835Z,2.60
2023-03-08T09:56:29.976Z,2.64
2023-03-08T09:59:06.033Z,2.59
2023-03-08T10:02:01.604Z,2.65
2023-03-08T10:04:40.732Z,2.71
2023-03-08T10:07:18.246Z,2.73
2023-03-08T10:09:58.932Z,2.77
2023-03-08T10:12:53.129Z,2.72
2023-03-08T10:15:23.521Z,2.80
2023-03-08T10:17:54.328Z,2.88
2023-03-08T10:20:30.159Z,2.94
2023-03-08T10:23:01.650Z,3.05
2023-03-08T10:25:34.053Z,3.12
2023-03-08T10:28:02.075Z,3.13
2023-03-08T10:30:33.616Z,3.15
2023-03-08T10:33:00.741Z,3.09
2023-03-08T10:35:38.576Z,3.16
2023-03-08T10:38:14.389Z,3.20
2023-03-08T10:40:40.974Z,3.23
2023-03-08T10:43:07.432Z,3.29
2023-03-08T10:45:33.861Z,3.30
2023-03-08T10:48:07.083Z,3.30
2023-03-08T10:50:37.386Z,3.36
2023-03-08T10:53:10.572Z,3.39
2023-03-08T10:55:42.288Z,3.37
2023-03-08T10:58:37.233Z,3.36
2023-03-08T11:01:05.203Z,3.40
2023-03-08T11:03:32.117Z,3.43
2023-03-08T11:06:14.898Z,3.44
2023-03-08T11:08:54.664Z,3.47
2023-03-08T11:11:21.160Z,3.50
2023-03-08T11:13:49.017Z,3.50
2023-03-08T11:16:43.835Z,3.54
2023-03-08T11:19:49.398Z,3.55
2023-03-08T11:22:49.897Z,3.53
2023-03-08T11:25:46.223Z,3.58
2023-03-08T11:28:34.308Z,3.61
2023-03-08T11:31:35.784Z,3.65
2023-03-08T11:34:08.370Z,3.69
2023-03-08T11:36:55.017Z,3.68
2023-03-08T11:39:24.566Z,3.71
2023-03-08T11:42:02.777Z,3.67
2023-03-08T11:44:38.362Z,3.50
2023-03-08T11:47:04.803Z,3.47
2023-03-08T11:49:36.943Z,3.41
2023-03-08T11:52:18.650Z,3.41
2023-03-08T11:55:05.245Z,3.37
2023-03-08T11:57:34.601Z,3.36
2023-03-08T12:00:12.900Z,3.27
2023-03-08T12:02:42.697Z,3.32
2023-03-08T12:05:33.415Z,3.28
2023-03-08T12:08:15.883Z,3.29
2023-03-08T12:10:48.064Z,3.31
2023-03-08T12:13:33.004Z,3.27
2023-03-08T12:16:23.037Z,3.32
2023-03-08T12:19:20.916Z,3.26
2023-03-08T12:22:06.090Z,3.35
2023-03-08T12:24:38.507Z,3.45
2023-03-08T12:27:40.519Z,3.45
2023-03-08T12:30:15.749Z,3.45
2023-03-08T12:32:42.576Z,3.43
2023-03-08T12:35:30.130Z,3.25
2023-03-08T12:38:03.636Z,3.25
2023-03-08T12:40:46.137Z,3.25
2023-03-08T12:43:13.571Z,3.25
2023-03-08T12:45:44.087Z,3.13
2023-03-08T12:48:23.048Z,3.21
2023-03-08T12:50:52.740Z,3.17
2023-03-08T12:53:29.483Z,3.15
2023-03-08T12:56:03.529Z,3.10
2023-03-08T12:58:30.792Z,3.12
2023-03-08T13:01:01.764Z,3.12
2023-03-08T13:03:36.014Z,3.02
2023-03-08T13:06:14.020Z,2.94
2023-03-08T13:08:43.063Z,2.99
2023-03-08T13:11:15.286Z,2.94
2023-03-08T13:13:50.416Z,2.94
2023-03-08T13:16:30.335Z,2.97
2023-03-08T13:19:03.403Z,2.96
2023-03-08T13:21:35.098Z,2.89
2023-03-08T13:24:04.730Z,2.91
2023-03-08T13:26:50.788Z,2.92
2023-03-08T13:29:18.945Z,2.96
2023-03-08T13:31:46.641Z,2.96
2023-03-08T13:34:32.540Z,2.93
2023-03-08T13:36:59.004Z,2.91
2023-03-08T13:39:27.076Z,2.84
2023-03-08T13:41:53.877Z,2.84
2023-03-08T13:44:27.198Z,2.81
2023-03-08T13:47:00.325Z,2.83
2023-03-08T13:49:26.695Z,2.86
2023-03-08T13:51:54.711Z,2.84
2023-03-08T13:54:34.755Z,2.81
2023-03-08T13:57:03.215Z,2.80
2023-03-08T13:59:29.936Z,2.78
2023-03-08T14:01:56.675Z,2.72
2023-03-08T14:04:26.203Z,2.61
2023-03-08T14:06:56.981Z,2.60
2023-03-08T14:09:23.886Z,2.68
2023-03-08T14:12:02.034Z,2.73
2023-03-08T14:14:31.046Z,2.75
2023-03-08T14:16:57.520Z,2.73
2023-03-08T14:19:27.830Z,2.69
2023-03-08T14:22:02.331Z,2.69
2023-03-08T14:24:33.276Z,2.64
2023-03-08T14:27:00.734Z,2.69
2023-03-08T14:29:36.506Z,2.67
2023-03-08T14:32:06.277Z,2.59
2023-03-08T14:34:42.869Z,2.64
2023-03-08T14:37:12.330Z,2.58
2023-03-08T14:39:41.024Z,2.53
2023-03-08T14:42:22.712Z,2.46
2023-03-08T14:45:03.929Z,2.47
2023-03-08T14:47:31.828Z,2.51
2023-03-08T14:50:25.583Z,2.48
2023-03-08T14:52:53.848Z,2.45
2023-03-08T14:55:28.374Z,2.36
2023-03-08T14:58:00.347Z,2.34
2023-03-08T15:00:29.815Z,2.27
2023-03-08T15:02:57.144Z,2.27
2023-03-08T15:05:29.302Z,2.23
2023-03-08T15:07:56.644Z,2.29
2023-03-08T15:10:27.658Z,2.25
2023-03-08T15:12:54.072Z,2.19
2023-03-08T15:15:20.538Z,2.21
2023-03-08T15:17:47.309Z,2.13
2023-03-08T15:20:13.841Z,2.14
2023-03-08T15:22:51.716Z,2.10
2023-03-08T15:25:25.274Z,2.12
2023-03-08T15:27:51.820Z,2.14
2023-03-08T15:30:20.363Z,2.17
2023-03-08T15:32:46.848Z,2.21
2023-03-08T15:35:13.492Z,2.20
2023-03-08T15:37:40.020Z,2.16
2023-03-08T15:40:09.837Z,2.15
2023-03-08T15:42:36.270Z,2.02
2023-03-08T15:45:02.763Z,2.06
2023-03-08T15:47:29.271Z,2.03
2023-03-08T15:49:55.638Z,2.03
2023-03-08T15:52:24.662Z,2.04
2023-03-08T15:54:52.624Z,1.92
2023-03-08T15:57:19.044Z,1.96
2023-03-08T15:59:45.393Z,2.00
2023-03-08T16:02:16.269Z,1.95
2023-03-08T16:04:45.623Z,1.80
2023-03-08T16:07:13.593Z,1.75
2023-03-08T16:09:39.948Z,1.66
2023-03-08T16:12:06.492Z,1.58
2023-03-08T16:14:32.961Z,1.55
2023-03-08T16:16:59.379Z,1.55
2023-03-08T16:19:25.720Z,1.53
2023-03-08T16:21:52.121Z,1.48
2023-03-08T16:24:18.485Z,1.42
2023-03-08T16:26:45.040Z,1.39
2023-03-08T16:29:11.461Z,1.39
2023-03-08T16:31:38.111Z,1.45
2023-03-08T16:34:05.547Z,1.42
2023-03-08T16:36:32.868Z,1.38
2023-03-08T16:38:59.226Z,1.34
2023-03-08T16:41:26.251Z,1.27
2023-03-08T16:43:52.607Z,1.29
2023-03-08T16:46:20.390Z,1.27
2023-03-08T16:48:49.627Z,1.22
2023-03-08T16:51:17.653Z,1.22
2023-03-08T16:53:44.131Z,1.18
2023-03-08T16:56:26.591Z,1.17
2023-03-08T16:58:53.707Z,1.18
2023-03-08T17:01:20.222Z,1.20
2023-03-08T17:03:46.694Z,1.18
2023-03-08T17:06:15.060Z,1.16
2023-03-08T17:08:41.426Z,1.21
2023-03-08T17:11:15.472Z,1.16
2023-03-08T17:13:41.828Z,1.11
2023-03-08T17:16:11.478Z,1.09
2023-03-08T17:18:37.880Z,1.06
2023-03-08T17:21:05.599Z,1.04
2023-03-08T17:23:32.164Z,1.07
2023-03-08T17:25:58.528Z,1.05
2023-03-08T17:28:24.875Z,1.03
2023-03-08T17:30:51.349Z,1.09
2023-03-08T17:33:17.693Z,1.02
2023-03-08T17:35:44.731Z,1.03
2023-03-08T17:38:11.199Z,1.00
2023-03-08T17:40:40.103Z,1.01
2023-03-08T17:43:06.468Z,0.99
2023-03-08T17:45:32.881Z,0.97
2023-03-08T17:48:02.649Z,0.98
2023-03-08T17:50:32.017Z,0.96
2023-03-08T17:52:58.530Z,0.97
2023-03-08T17:55:25.229Z,0.98
2023-03-08T17:57:51.644Z,0.98
2023-03-08T18:00:19.297Z,0.91
2023-03-08T18:02:46.253Z,0.89
2023-03-08T18:05:12.850Z,0.83
2023-03-08T18:07:41.586Z,0.90
2023-03-08T18:10:11.088Z,0.89
2023-03-08T18:12:37.457Z,0.81
2023-03-08T18:15:04.365Z,0.90
2023-03-08T18:17:30.908Z,0.89
2023-03-08T18:19:57.277Z,0.94
2023-03-08T18:22:23.927Z,0.87
2023-03-08T18:24:50.284Z,0.90
2023-03-08T18:27:16.669Z,0.91
2023-03-08T18:29:43.189Z,0.98
2023-03-08T18:32:10.182Z,0.92
2023-03-08T18:34:38.448Z,0.83
2023-03-08T18:37:05.268Z,0.82
2023-03-08T18:39:31.946Z,0.85
2023-03-08T18:42:00.631Z,0.86
2023-03-08T18:44:27.087Z,0.81
2023-03-08T18:46:53.694Z,0.87
2023-03-08T18:49:20.601Z,0.82
2023-03-08T18:51:47.066Z,0.81
2023-03-08T18:54:17.188Z,0.87
2023-03-08T18:56:44.237Z,0.89
2023-03-08T18:59:12.102Z,0.96
2023-03-08T19:01:38.510Z,0.96
2023-03-08T19:04:06.334Z,0.85
2023-03-08T19:06:32.981Z,0.90
2023-03-08T19:08:59.487Z,0.93
2023-03-08T19:11:27.275Z,0.91
2023-03-08T19:13:53.659Z,0.96
2023-03-08T19:16:22.180Z,0.94
2023-03-08T19:18:49.707Z,0.93
2023-03-08T19:21:21.070Z,0.91
2023-03-08T19:23:47.690Z,0.91
2023-03-08T19:26:33.777Z,1.02
2023-03-08T19:29:00.904Z,1.03
2023-03-08T19:31:28.171Z,1.01
2023-03-08T19:33:54.601Z,1.04
2023-03-08T19:36:20.962Z,1.07
2023-03-08T19:38:47.394Z,1.09
2023-03-08T19:41:13.935Z,1.08
2023-03-08T19:43:40.286Z,1.05
2023-03-08T19:46:06.926Z,1.06
2023-03-08T19:48:33.306Z,0.95
2023-03-08T19:50:59.656Z,1.03
2023-03-08T19:53:26.000Z,0.95
2023-03-08T19:55:53.233Z,1.01
2023-03-08T19:58:19.785Z,1.02
2023-03-08T20:00:46.440Z,1.03
2023-03-08T20:03:13.599Z,1.09
2023-03-08T20:05:41.762Z,1.07
2023-03-08T20:08:08.170Z,1.09
2023-03-08T20:10:34.518Z,1.08
2023-03-08T20:13:03.976Z,1.08
2023-03-08T20:15:30.461Z,1.04
2023-03-08T20:17:56.838Z,0.98
2023-03-08T20:20:23.257Z,1.00
2023-03-08T20:22:49.698Z,1.06
2023-03-08T20:25:16.087Z,1.08
2023-03-08T20:27:43.464Z,1.05
2023-03-08T20:30:11.138Z,1.08
2023-03-08T20:32:37.575Z,1.12
2023-03-08T20:35:05.143Z,1.06
2023-03-08T20:37:31.733Z,1.11
2023-03-08T20:39:59.023Z,1.09
2023-03-08T20:42:25.524Z,1.00
2023-03-08T20:44:52.016Z,1.07
2023-03-08T20:47:18.532Z,1.03
2023-03-08T20:49:44.896Z,0.98
2023-03-08T20:52:11.260Z,0.99
2023-03-08T20:54:37.631Z,1.08
2023-03-08T20:57:05.516Z,1.09
2023-03-08T20:59:32.055Z,1.12
2023-03-08T21:01:58.448Z,1.06
2023-03-08T21:04:24.880Z,1.11
2023-03-08T21:06:51.355Z,1.13
2023-03-08T21:09:17.749Z,1.06
2023-03-08T21:11:45.148Z,1.09
2023-03-08T21:14:11.758Z,1.13
2023-03-08T21:16:38.328Z,1.11
2023-03-08T21:19:05.096Z,1.05
2023-03-08T21:21:34.214Z,1.05
2023-03-08T21:24:02.974Z,1.11
2023-03-08T21:26:29.531Z,1.10
2023-03-08T21:28:57.919Z,1.12
2023-03-08T21:31:24.526Z,1.13
2023-03-08T21:33:51.094Z,1.14
2023-03-08T21:36:18.241Z,1.14
2023-03-08T21:38:44.666Z,1.14
2023-03-08T21:41:27.236Z,1.17
2023-03-08T21:43:53.740Z,1.18
2023-03-08T21:46:20.267Z,1.12
2023-03-08T21:48:46.829Z,1.15
2023-03-08T21:51:13.346Z,1.14
2023-03-08T21:53:39.845Z,1.15
2023-03-08T21:56:08.323Z,1.17
2023-03-08T21:58:35.335Z,1.14
2023-03-08T22:01:02.321Z,1.10
2023-03-08T22:03:30.735Z,1.09
2023-03-08T22:05:57.763Z,1.13
2023-03-08T22:08:25.160Z,1.13
2023-03-08T22:10:54.666Z,1.10
2023-03-08T22:13:21.104Z,1.13
2023-03-08T22:15:47.631Z,1.13
2023-03-08T22:18:14.005Z,1.08
2023-03-08T22:20:40.356Z,1.10
2023-03-08T22:23:09.707Z,1.09
2023-03-08T22:25:36.099Z,1.12
2023-03-08T22:28:02.483Z,1.10
2023-03-08T22:30:28.904Z,1.13
2023-03-08T22:32:55.257Z,1.17
2023-03-08T22:35:22.321Z,1.14
2023-03-08T22:37:49.162Z,1.13
2023-03-08T22:40:16.876Z,1.14
2023-03-08T22:42:43.429Z,1.12
2023-03-08T22:45:10.121Z,1.14
2023-03-08T22:47:36.740Z,1.09
2023-03-08T22:50:03.890Z,1.08
2023-03-08T22:52:30.245Z,1.04
2023-03-08T22:54:56.781Z,1.06
2023-03-08T22:57:23.163Z,1.04
2023-03-08T22:59:55.299Z,1.06
2023-03-08T23:02:21.684Z,1.03
2023-03-08T23:04:48.047Z,1.01
2023-03-08T23:07:14.495Z,1.05
2023-03-08T23:09:41.209Z,1.04
2023-03-08T23:12:07.870Z,1.02
2023-03-08T23:14:34.413Z,1.05
2023-03-08T23:17:00.958Z,1.07
2023-03-08T23:19:27.386Z,1.08
2023-03-08T23:21:53.759Z,1.06
2023-03-08T23:24:20.435Z,1.11
2023-03-08T23:26:46.878Z,1.09
2023-03-08T23:29:13.777Z,1.07
2023-03-08T23:31:42.997Z,1.05
2023-03-08T23:34:09.416Z,0.96
2023-03-08T23:36:35.770Z,1.04
2023-03-08T23:39:03.670Z,1.06
2023-03-08T23:41:30.900Z,1.07
2023-03-08T23:43:59.239Z,1.06
2023-03-08T23:46:25.932Z,0.99
2023-03-08T23:48:55.087Z,1.03
2023-03-08T23:51:22.179Z,0.96
2023-03-08T23:53:49.732Z,0.91
2023-03-08T23:56:18.878Z,0.85
2023-03-08T23:58:47.979Z,0.80
